createdAt,value
2019-03-29T00:00:32.121Z,0.00
2019-03-29T00:01:30.627Z,0.00
2019-03-29T00:02:30.660Z,0.00
2019-03-29T00:03:30.578Z,0.00
2019-03-29T00:04:30.615Z,0.00
2019-03-29T00:05:30.581Z,0.00
2019-03-29T00:06:30.578Z,0.00
2019-03-29T00:07:39.510Z,0.00
2019-03-29T00:08:31.543Z,0.00
2019-03-29T00:09:30.515Z,0.00
2019-03-29T00:10:30.550Z,0.00
2019-03-29T00:11:30.508Z,0.00
2019-03-29T00:12:31.072Z,0.00
2019-03-29T00:13:30.513Z,0.00
2019-03-29T00:14:30.488Z,0.00
2019-03-29T00:15:30.481Z,0.00
2019-03-29T00:16:30.455Z,0.00
2019-03-29T00:17:30.437Z,0.00
2019-03-29T00:18:30.455Z,0.00
2019-03-29T00:19:30.422Z,0.00
2019-03-29T00:20:30.415Z,0.00
2019-03-29T00:21:30.387Z,0.00
2019-03-29T00:22:30.995Z,0.00
2019-03-29T00:23:30.377Z,0.00
2019-03-29T00:24:30.364Z,0.00
2019-03-29T00:25:30.357Z,0.00
2019-03-29T00:26:30.336Z,0.00
2019-03-29T00:27:30.333Z,0.00
2019-03-29T00:28:30.340Z,0.00
2019-03-29T00:29:30.329Z,0.00
2019-03-29T00:30:30.313Z,0.00
2019-03-29T00:31:30.291Z,0.00
2019-03-29T00:32:30.268Z,0.00
2019-03-29T00:33:30.308Z,0.00
2019-03-29T00:34:30.261Z,0.00
2019-03-29T00:35:30.273Z,0.00
2019-03-29T00:36:30.245Z,0.00
2019-03-29T00:37:30.229Z,0.00
2019-03-29T00:38:30.262Z,0.00
2019-03-29T00:39:30.206Z,0.00
2019-03-29T00:40:30.208Z,0.00
2019-03-29T00:41:30.193Z,0.00
2019-03-29T00:42:30.170Z,0.00
2019-03-29T00:43:30.189Z,0.00
2019-03-29T00:44:30.151Z,0.00
2019-03-29T00:45:30.143Z,0.00
2019-03-29T00:46:30.132Z,0.00
2019-03-29T00:47:30.263Z,0.00
2019-03-29T00:48:30.143Z,0.00
2019-03-29T00:49:30.118Z,0.00
2019-03-29T00:50:30.084Z,0.00
2019-03-29T00:51:30.060Z,0.00
2019-03-29T00:52:30.065Z,0.00
2019-03-29T00:53:30.066Z,0.00
2019-03-29T00:54:30.044Z,0.00
2019-03-29T00:55:30.039Z,0.00
2019-03-29T00:56:30.063Z,0.00
2019-03-29T00:57:30.307Z,0.00
2019-03-29T00:58:30.044Z,0.00
2019-03-29T00:59:29.989Z,0.00
2019-03-29T01:00:31.602Z,0.00
2019-03-29T01:01:29.999Z,0.00
2019-03-29T01:02:29.978Z,0.00
2019-03-29T01:03:29.964Z,0.00
2019-03-29T01:04:29.935Z,0.00
2019-03-29T01:05:29.918Z,0.00
2019-03-29T01:06:29.896Z,0.00
2019-03-29T01:07:30.219Z,0.00
2019-03-29T01:08:29.910Z,0.00
2019-03-29T01:09:30.252Z,0.00
2019-03-29T01:10:29.851Z,0.00
2019-03-29T01:11:29.858Z,0.00
2019-03-29T01:12:29.846Z,0.00
2019-03-29T01:13:29.840Z,0.00
2019-03-29T01:14:29.818Z,0.00
2019-03-29T01:15:29.796Z,0.00
2019-03-29T01:16:29.796Z,0.00
2019-03-29T01:17:29.801Z,0.00
2019-03-29T01:18:29.790Z,0.00
2019-03-29T01:19:29.904Z,0.00
2019-03-29T01:20:29.749Z,0.00
2019-03-29T01:21:29.746Z,0.00
2019-03-29T01:22:29.747Z,0.00
2019-03-29T01:23:29.747Z,0.00
2019-03-29T01:24:29.733Z,0.00
2019-03-29T01:25:29.704Z,0.00
2019-03-29T01:26:29.695Z,0.00
2019-03-29T01:27:29.690Z,0.00
2019-03-29T01:28:29.685Z,0.00
2019-03-29T01:29:30.349Z,0.00
2019-03-29T01:30:29.661Z,0.00
2019-03-29T01:31:29.631Z,0.00
2019-03-29T01:32:29.610Z,0.00
2019-03-29T01:33:29.641Z,0.00
2019-03-29T01:34:29.627Z,0.00
2019-03-29T01:35:29.600Z,0.00
2019-03-29T01:36:29.589Z,0.00
2019-03-29T01:37:29.575Z,0.00
2019-03-29T01:38:29.590Z,0.00
2019-03-29T01:39:29.558Z,0.00
2019-03-29T01:40:29.541Z,0.00
2019-03-29T01:41:29.536Z,0.00
2019-03-29T01:42:29.522Z,0.00
2019-03-29T01:43:29.554Z,0.00
2019-03-29T01:44:29.506Z,0.00
2019-03-29T01:45:29.478Z,0.00
2019-03-29T01:46:29.473Z,0.00
2019-03-29T01:47:30.036Z,0.00
2019-03-29T01:48:29.482Z,0.00
2019-03-29T01:49:29.435Z,0.00
2019-03-29T01:50:29.416Z,0.00
2019-03-29T01:51:29.403Z,0.00
2019-03-29T01:52:31.598Z,0.00
2019-03-29T01:53:29.427Z,0.00
2019-03-29T01:54:29.406Z,0.00
2019-03-29T01:55:29.376Z,0.00
2019-03-29T01:56:29.363Z,0.00
2019-03-29T01:57:29.355Z,0.00
2019-03-29T01:58:29.351Z,0.00
2019-03-29T01:59:29.330Z,0.00
2019-03-29T02:00:29.343Z,0.00
2019-03-29T02:01:29.376Z,0.00
2019-03-29T02:02:29.319Z,0.00
2019-03-29T02:03:29.302Z,0.00
2019-03-29T02:04:29.258Z,0.00
2019-03-29T02:05:29.269Z,0.00
2019-03-29T02:06:29.258Z,0.00
2019-03-29T02:07:29.237Z,0.00
2019-03-29T02:08:35.623Z,0.00
2019-03-29T02:09:30.275Z,0.00
2019-03-29T02:10:29.221Z,0.00
2019-03-29T02:11:29.200Z,0.00
2019-03-29T02:12:29.183Z,0.00
2019-03-29T02:13:29.204Z,0.00
2019-03-29T02:14:29.161Z,0.00
2019-03-29T02:15:29.159Z,0.00
2019-03-29T02:16:29.275Z,0.00
2019-03-29T02:17:29.127Z,0.00
2019-03-29T02:18:29.143Z,0.00
2019-03-29T02:19:29.109Z,0.00
2019-03-29T02:20:29.107Z,0.00
2019-03-29T02:21:29.095Z,0.00
2019-03-29T02:22:29.068Z,0.00
2019-03-29T02:23:29.211Z,0.00
2019-03-29T02:24:29.088Z,0.00
2019-03-29T02:25:29.030Z,0.00
2019-03-29T02:26:29.017Z,0.00
2019-03-29T02:27:29.019Z,0.00
2019-03-29T02:28:29.030Z,0.00
2019-03-29T02:29:29.011Z,0.00
2019-03-29T02:30:28.982Z,0.00
2019-03-29T02:31:29.294Z,0.00
2019-03-29T02:32:28.983Z,0.00
2019-03-29T02:33:29.001Z,0.00
2019-03-29T02:34:28.954Z,0.00
2019-03-29T02:35:28.933Z,0.00
2019-03-29T02:36:28.936Z,0.00
2019-03-29T02:37:29.617Z,0.00
2019-03-29T02:38:28.936Z,0.00
2019-03-29T02:39:28.885Z,0.00
2019-03-29T02:40:28.871Z,0.00
2019-03-29T02:41:28.878Z,0.00
2019-03-29T02:42:28.869Z,0.00
2019-03-29T02:43:28.866Z,0.00
2019-03-29T02:44:28.823Z,0.00
2019-03-29T02:45:30.564Z,0.00
2019-03-29T02:46:28.809Z,0.00
2019-03-29T02:47:28.799Z,0.00
2019-03-29T02:48:28.817Z,0.00
2019-03-29T02:49:28.782Z,0.00
2019-03-29T02:50:28.771Z,0.00
2019-03-29T02:51:28.773Z,0.00
2019-03-29T02:52:28.752Z,0.00
2019-03-29T02:53:28.788Z,0.00
2019-03-29T02:54:28.704Z,0.00
2019-03-29T02:55:28.692Z,0.00
2019-03-29T02:56:28.696Z,0.00
2019-03-29T02:57:28.702Z,0.00
2019-03-29T02:58:28.710Z,0.00
2019-03-29T02:59:28.687Z,0.00
2019-03-29T03:00:28.660Z,0.00
2019-03-29T03:01:28.681Z,0.00
2019-03-29T03:02:28.640Z,0.00
2019-03-29T03:03:28.655Z,0.00
2019-03-29T03:04:28.610Z,0.00
2019-03-29T03:05:28.597Z,0.00
2019-03-29T03:06:28.586Z,0.00
2019-03-29T03:07:28.579Z,0.00
2019-03-29T03:08:32.677Z,0.00
2019-03-29T03:09:28.549Z,0.00
2019-03-29T03:10:28.539Z,0.00
2019-03-29T03:11:28.551Z,0.00
2019-03-29T03:12:28.516Z,0.00
2019-03-29T03:13:28.522Z,0.00
2019-03-29T03:14:28.504Z,0.00
2019-03-29T03:15:28.501Z,0.00
2019-03-29T03:16:28.474Z,0.00
2019-03-29T03:17:28.536Z,0.00
2019-03-29T03:18:28.484Z,0.00
2019-03-29T03:19:28.456Z,0.00
2019-03-29T03:20:28.445Z,0.00
2019-03-29T03:21:28.427Z,0.00
2019-03-29T03:22:28.435Z,0.00
2019-03-29T03:23:28.399Z,0.00
2019-03-29T03:24:28.392Z,0.00
2019-03-29T03:25:28.381Z,0.00
2019-03-29T03:26:28.379Z,0.00
2019-03-29T03:27:28.373Z,0.00
2019-03-29T03:28:28.349Z,0.00
2019-03-29T03:29:28.333Z,0.00
2019-03-29T03:30:28.361Z,0.00
2019-03-29T03:31:28.323Z,0.00
2019-03-29T03:32:28.335Z,0.00
2019-03-29T03:33:28.290Z,0.00
2019-03-29T03:34:28.273Z,0.00
2019-03-29T03:35:28.264Z,0.00
2019-03-29T03:36:28.274Z,0.00
2019-03-29T03:37:28.282Z,0.00
2019-03-29T03:38:28.774Z,0.00
2019-03-29T03:39:32.227Z,0.00
2019-03-29T03:40:28.216Z,0.00
2019-03-29T03:41:28.199Z,0.00
2019-03-29T03:42:28.225Z,0.00
2019-03-29T03:43:28.180Z,0.00
2019-03-29T03:44:28.167Z,0.00
2019-03-29T03:45:28.151Z,0.00
2019-03-29T03:46:28.147Z,0.00
2019-03-29T03:47:28.149Z,0.00
2019-03-29T03:48:28.119Z,0.00
2019-03-29T03:49:28.119Z,0.00
2019-03-29T03:50:28.135Z,0.00
2019-03-29T03:51:28.099Z,0.00
2019-03-29T03:52:28.077Z,0.00
2019-03-29T03:53:28.124Z,0.00
2019-03-29T03:54:28.059Z,0.00
2019-03-29T03:55:28.037Z,0.00
2019-03-29T03:56:28.051Z,0.00
2019-03-29T03:57:28.018Z,0.00
2019-03-29T03:58:28.046Z,0.00
2019-03-29T03:59:28.001Z,0.00
2019-03-29T04:00:27.997Z,0.00
2019-03-29T04:01:27.987Z,0.00
2019-03-29T04:02:27.994Z,0.00
2019-03-29T04:03:28.024Z,0.00
2019-03-29T04:04:27.947Z,0.00
2019-03-29T04:05:27.963Z,0.00
2019-03-29T04:06:27.917Z,0.00
2019-03-29T04:07:27.927Z,0.00
2019-03-29T04:08:27.958Z,0.00
2019-03-29T04:09:27.917Z,0.00
2019-03-29T04:10:27.905Z,0.00
2019-03-29T04:11:27.891Z,0.00
2019-03-29T04:12:27.867Z,0.00
2019-03-29T04:13:27.884Z,0.00
2019-03-29T04:14:27.846Z,0.00
2019-03-29T04:15:27.818Z,0.00
2019-03-29T04:16:27.816Z,0.00
2019-03-29T04:17:27.812Z,0.00
2019-03-29T04:18:27.838Z,0.00
2019-03-29T04:19:27.792Z,0.00
2019-03-29T04:20:27.787Z,0.00
2019-03-29T04:21:27.769Z,0.00
2019-03-29T04:22:27.754Z,0.00
2019-03-29T04:23:27.803Z,0.00
2019-03-29T04:24:27.733Z,0.00
2019-03-29T04:25:27.703Z,0.00
2019-03-29T04:26:27.706Z,0.00
2019-03-29T04:27:27.685Z,0.00
2019-03-29T04:28:27.711Z,0.00
2019-03-29T04:29:27.694Z,0.00
2019-03-29T04:30:27.670Z,0.00
2019-03-29T04:31:27.651Z,0.00
2019-03-29T04:32:27.643Z,0.00
2019-03-29T04:33:27.648Z,0.00
2019-03-29T04:34:27.618Z,0.00
2019-03-29T04:35:27.611Z,0.00
2019-03-29T04:36:27.598Z,0.00
2019-03-29T04:37:27.585Z,0.00
2019-03-29T04:38:27.610Z,0.00
2019-03-29T04:39:27.563Z,4.00
2019-03-29T04:40:27.565Z,4.00
2019-03-29T04:41:27.538Z,0.00
2019-03-29T04:42:27.537Z,4.00
2019-03-29T04:43:27.542Z,0.00
2019-03-29T04:44:27.519Z,4.00
2019-03-29T04:45:27.512Z,4.00
2019-03-29T04:46:27.492Z,4.00
2019-03-29T04:47:27.484Z,8.00
2019-03-29T04:48:27.526Z,8.00
2019-03-29T04:49:27.471Z,12.00
2019-03-29T04:50:27.444Z,12.00
2019-03-29T04:51:27.452Z,12.00
2019-03-29T04:52:27.446Z,16.00
2019-03-29T04:53:27.417Z,20.00
2019-03-29T04:54:27.394Z,24.00
2019-03-29T04:55:27.395Z,32.00
2019-03-29T04:56:27.389Z,32.00
2019-03-29T04:57:27.383Z,40.00
2019-03-29T04:58:27.349Z,48.00
2019-03-29T04:59:27.343Z,56.00
2019-03-29T05:00:27.323Z,68.00
2019-03-29T05:01:27.328Z,76.00
2019-03-29T05:02:27.347Z,92.00
2019-03-29T05:03:27.299Z,104.00
2019-03-29T05:04:27.316Z,116.00
2019-03-29T05:05:27.307Z,136.00
2019-03-29T05:06:27.275Z,156.00
2019-03-29T05:07:27.273Z,176.00
2019-03-29T05:08:27.254Z,196.00
2019-03-29T05:09:27.250Z,224.00
2019-03-29T05:10:27.259Z,252.00
2019-03-29T05:11:27.224Z,280.00
2019-03-29T05:12:27.221Z,312.00
2019-03-29T05:13:27.225Z,344.00
2019-03-29T05:14:27.203Z,380.00
2019-03-29T05:15:27.162Z,420.00
2019-03-29T05:16:27.167Z,460.00
2019-03-29T05:17:27.154Z,504.00
2019-03-29T05:18:27.152Z,548.00
2019-03-29T05:19:27.130Z,596.00
2019-03-29T05:20:27.124Z,648.00
2019-03-29T05:21:27.098Z,704.00
2019-03-29T05:22:27.104Z,760.00
2019-03-29T05:23:27.078Z,824.00
2019-03-29T05:24:27.079Z,884.00
2019-03-29T05:25:27.069Z,956.00
2019-03-29T05:26:27.064Z,1028.00
2019-03-29T05:27:27.088Z,1108.00
2019-03-29T05:28:27.034Z,1188.00
2019-03-29T05:29:27.029Z,1276.00
2019-03-29T05:30:27.000Z,1364.00
2019-03-29T05:31:27.001Z,1464.00
2019-03-29T05:32:27.019Z,1564.00
2019-03-29T05:33:26.969Z,1668.00
2019-03-29T05:34:26.988Z,1772.00
2019-03-29T05:35:26.976Z,1888.00
2019-03-29T05:36:26.934Z,2004.00
2019-03-29T05:37:26.965Z,2120.00
2019-03-29T05:38:26.933Z,2240.00
2019-03-29T05:39:26.905Z,2364.00
2019-03-29T05:40:34.975Z,2500.00
2019-03-29T05:41:27.901Z,2640.00
2019-03-29T05:42:26.914Z,2780.00
2019-03-29T05:43:26.869Z,2924.00
2019-03-29T05:44:26.843Z,3080.00
2019-03-29T05:45:26.832Z,3220.00
2019-03-29T05:46:26.832Z,3712.00
2019-03-29T05:47:26.837Z,4920.00
2019-03-29T05:48:26.821Z,6964.00
2019-03-29T05:49:26.797Z,9844.00
2019-03-29T05:50:26.778Z,10432.00
2019-03-29T05:51:26.773Z,11360.00
2019-03-29T05:52:26.797Z,12608.00
2019-03-29T05:53:26.753Z,12640.00
2019-03-29T05:54:26.759Z,12896.00
2019-03-29T05:55:32.599Z,14592.00
2019-03-29T05:56:27.722Z,14400.00
2019-03-29T05:57:26.761Z,17888.00
2019-03-29T05:58:26.710Z,21632.00
2019-03-29T05:59:26.682Z,22656.00
2019-03-29T06:00:26.681Z,23808.00
2019-03-29T06:01:26.660Z,25344.00
2019-03-29T06:02:26.685Z,26144.00
2019-03-29T06:03:26.642Z,26080.00
2019-03-29T06:04:26.635Z,29504.00
2019-03-29T06:05:26.623Z,31872.00
2019-03-29T06:06:26.616Z,32800.00
2019-03-29T06:07:26.638Z,34080.00
2019-03-29T06:08:26.588Z,35840.00
2019-03-29T06:09:26.588Z,35136.00
2019-03-29T06:10:26.568Z,35872.00
2019-03-29T06:11:26.556Z,36352.00
2019-03-29T06:12:26.652Z,38816.00
2019-03-29T06:13:26.577Z,39904.00
2019-03-29T06:14:26.549Z,41312.00
2019-03-29T06:15:26.517Z,42272.00
2019-03-29T06:16:38.356Z,43040.00
2019-03-29T06:17:27.516Z,42816.00
2019-03-29T06:18:26.490Z,44256.00
2019-03-29T06:19:26.479Z,46400.00
2019-03-29T06:20:26.468Z,46144.00
2019-03-29T06:21:26.452Z,46976.00
2019-03-29T06:22:26.437Z,47648.00
2019-03-29T06:23:26.478Z,47424.00
2019-03-29T06:24:26.423Z,49536.00
2019-03-29T06:25:26.398Z,50336.00
2019-03-29T06:26:26.421Z,51808.00
2019-03-29T06:27:26.392Z,52736.00
2019-03-29T06:28:29.631Z,53888.00
2019-03-29T06:29:26.388Z,54400.00
2019-03-29T06:30:26.372Z,53344.00
2019-03-29T06:31:26.337Z,53376.00
2019-03-29T06:32:26.349Z,55744.00
2019-03-29T06:33:26.339Z,54592.00
2019-03-29T06:34:26.304Z,54816.00
2019-03-29T06:35:26.305Z,52608.00
2019-03-29T06:36:26.301Z,52928.00
2019-03-29T06:37:26.302Z,52320.00
2019-03-29T06:38:26.305Z,52704.00
2019-03-29T06:39:26.257Z,55712.00
2019-03-29T06:40:26.257Z,59392.00
2019-03-29T06:41:26.255Z,60096.00
2019-03-29T06:42:26.224Z,61504.00
2019-03-29T06:43:26.258Z,61984.00
2019-03-29T06:44:26.224Z,63296.00
2019-03-29T06:45:26.211Z,62912.00
2019-03-29T06:46:26.198Z,65568.00
2019-03-29T06:47:26.186Z,66272.00
2019-03-29T06:48:27.139Z,67872.00
2019-03-29T06:49:26.185Z,66752.00
2019-03-29T06:50:26.570Z,67680.00
2019-03-29T06:51:26.440Z,71840.00
2019-03-29T06:52:26.456Z,71360.00
2019-03-29T06:53:26.156Z,71936.00
2019-03-29T06:54:26.214Z,72064.00
2019-03-29T06:55:26.404Z,70528.00
2019-03-29T06:56:26.414Z,73248.00
2019-03-29T06:57:26.541Z,72480.00
2019-03-29T06:58:26.144Z,73760.00
2019-03-29T06:59:26.106Z,74688.00
2019-03-29T07:00:26.163Z,75552.00
2019-03-29T07:01:26.050Z,76864.00
2019-03-29T07:02:26.740Z,77632.00
2019-03-29T07:03:26.111Z,77408.00
2019-03-29T07:04:26.011Z,78112.00
2019-03-29T07:05:26.502Z,80000.00
2019-03-29T07:06:26.065Z,81376.00
2019-03-29T07:07:26.479Z,79552.00
2019-03-29T07:08:27.114Z,78368.00
2019-03-29T07:09:26.367Z,82048.00
2019-03-29T07:10:26.001Z,81696.00
2019-03-29T07:11:25.943Z,82752.00
2019-03-29T07:12:25.930Z,84544.00
2019-03-29T07:13:25.931Z,82880.00
2019-03-29T07:14:25.969Z,82560.00
2019-03-29T07:15:25.894Z,82144.00
2019-03-29T07:16:25.981Z,81792.00
2019-03-29T07:17:26.237Z,80416.00
2019-03-29T07:18:25.861Z,84096.00
2019-03-29T07:19:25.899Z,85632.00
2019-03-29T07:20:25.855Z,87456.00
2019-03-29T07:21:25.850Z,87456.00
2019-03-29T07:22:25.854Z,91008.00
2019-03-29T07:23:25.845Z,94912.00
2019-03-29T07:24:25.837Z,86944.00
2019-03-29T07:25:25.822Z,86272.00
2019-03-29T07:26:25.836Z,86752.00
2019-03-29T07:27:25.940Z,85632.00
2019-03-29T07:28:25.796Z,87520.00
2019-03-29T07:29:25.830Z,86368.00
2019-03-29T07:30:25.772Z,86560.00
2019-03-29T07:31:25.745Z,86144.00
2019-03-29T07:32:25.757Z,86912.00
2019-03-29T07:33:25.746Z,87488.00
2019-03-29T07:34:25.750Z,88640.00
2019-03-29T07:35:25.700Z,88704.00
2019-03-29T07:36:25.699Z,87776.00
2019-03-29T07:37:25.676Z,85088.00
2019-03-29T07:38:25.716Z,84032.00
2019-03-29T07:39:25.704Z,83488.00
2019-03-29T07:40:25.705Z,83008.00
2019-03-29T07:41:32.136Z,84224.00
2019-03-29T07:42:26.643Z,84224.00
2019-03-29T07:43:25.626Z,83200.00
2019-03-29T07:44:25.696Z,83264.00
2019-03-29T07:45:25.616Z,81952.00
2019-03-29T07:46:25.615Z,83616.00
2019-03-29T07:47:25.603Z,82944.00
2019-03-29T07:48:25.583Z,83648.00
2019-03-29T07:49:25.621Z,84896.00
2019-03-29T07:50:25.581Z,86496.00
2019-03-29T07:51:25.552Z,86368.00
2019-03-29T07:52:25.569Z,87424.00
2019-03-29T07:53:25.530Z,88800.00
2019-03-29T07:54:25.600Z,89184.00
2019-03-29T07:55:25.537Z,89152.00
2019-03-29T07:56:25.507Z,88608.00
2019-03-29T07:57:25.495Z,90752.00
2019-03-29T07:58:25.507Z,90656.00
2019-03-29T07:59:25.521Z,91072.00
2019-03-29T08:00:25.495Z,92160.00
2019-03-29T08:01:25.453Z,90464.00
2019-03-29T08:02:25.504Z,92064.00
2019-03-29T08:03:25.446Z,92672.00
2019-03-29T08:04:25.463Z,93728.00
2019-03-29T08:05:25.455Z,94016.00
2019-03-29T08:06:25.419Z,87744.00
2019-03-29T08:07:27.474Z,85984.00
2019-03-29T08:08:32.038Z,85344.00
2019-03-29T08:09:27.426Z,83776.00
2019-03-29T08:10:30.211Z,84768.00
2019-03-29T08:11:27.638Z,89824.00
2019-03-29T08:12:25.397Z,90784.00
2019-03-29T08:13:25.359Z,88192.00
2019-03-29T08:14:25.415Z,89312.00
2019-03-29T08:15:25.336Z,90048.00
2019-03-29T08:16:25.335Z,88992.00
2019-03-29T08:17:25.340Z,89088.00
2019-03-29T08:18:25.295Z,88576.00
2019-03-29T08:19:25.318Z,88640.00
2019-03-29T08:20:40.299Z,87648.00
2019-03-29T08:21:26.271Z,86976.00
2019-03-29T08:22:25.294Z,86624.00
2019-03-29T08:23:28.537Z,87904.00
2019-03-29T08:24:25.254Z,88512.00
2019-03-29T08:25:25.279Z,86816.00
2019-03-29T08:26:25.239Z,87552.00
2019-03-29T08:27:25.208Z,87392.00
2019-03-29T08:28:25.231Z,86752.00
2019-03-29T08:29:25.209Z,86048.00
2019-03-29T08:30:25.239Z,86112.00
2019-03-29T08:31:25.190Z,86400.00
2019-03-29T08:32:25.188Z,86880.00
2019-03-29T08:33:25.174Z,85792.00
2019-03-29T08:34:25.198Z,85376.00
2019-03-29T08:35:25.235Z,85952.00
2019-03-29T08:36:25.157Z,85632.00
2019-03-29T08:37:25.143Z,86176.00
2019-03-29T08:38:25.121Z,88544.00
2019-03-29T08:39:28.276Z,87936.00
2019-03-29T08:40:25.107Z,88256.00
2019-03-29T08:41:25.091Z,86048.00
2019-03-29T08:42:25.079Z,82048.00
2019-03-29T08:43:25.100Z,80896.00
2019-03-29T08:44:25.038Z,82336.00
2019-03-29T08:45:25.073Z,82112.00
2019-03-29T08:46:25.025Z,83456.00
2019-03-29T08:47:25.045Z,86592.00
2019-03-29T08:48:25.024Z,88704.00
2019-03-29T08:49:25.000Z,88160.00
2019-03-29T08:50:25.023Z,87904.00
2019-03-29T08:51:24.991Z,87008.00
2019-03-29T08:52:25.033Z,85952.00
2019-03-29T08:53:27.435Z,83872.00
2019-03-29T08:54:24.942Z,82752.00
2019-03-29T08:55:24.978Z,83392.00
2019-03-29T08:56:24.951Z,87392.00
2019-03-29T08:57:24.951Z,88512.00
2019-03-29T08:58:25.000Z,88256.00
2019-03-29T08:59:24.920Z,88512.00
2019-03-29T09:00:24.935Z,86816.00
2019-03-29T09:01:24.888Z,85760.00
2019-03-29T09:02:25.338Z,86176.00
2019-03-29T09:03:24.880Z,85760.00
2019-03-29T09:04:24.903Z,86368.00
2019-03-29T09:05:24.909Z,87616.00
2019-03-29T09:06:24.915Z,87168.00
2019-03-29T09:07:27.914Z,86432.00
2019-03-29T09:08:24.813Z,85728.00
2019-03-29T09:09:24.826Z,84416.00
2019-03-29T09:10:24.842Z,85184.00
2019-03-29T09:11:24.806Z,84768.00
2019-03-29T09:12:24.814Z,82400.00
2019-03-29T09:13:24.763Z,81920.00
2019-03-29T09:14:24.760Z,83264.00
2019-03-29T09:15:24.809Z,82368.00
2019-03-29T09:16:24.733Z,79360.00
2019-03-29T09:17:24.754Z,81376.00
2019-03-29T09:18:26.067Z,81056.00
2019-03-29T09:19:24.722Z,79072.00
2019-03-29T09:20:24.783Z,78048.00
2019-03-29T09:21:24.697Z,77984.00
2019-03-29T09:22:24.695Z,79616.00
2019-03-29T09:23:24.689Z,79904.00
2019-03-29T09:24:24.615Z,79200.00
2019-03-29T09:25:24.604Z,78528.00
2019-03-29T09:26:24.698Z,79680.00
2019-03-29T09:27:24.654Z,79296.00
2019-03-29T09:28:24.640Z,80640.00
2019-03-29T09:29:24.634Z,80800.00
2019-03-29T09:30:24.589Z,78784.00
2019-03-29T09:31:24.652Z,77888.00
2019-03-29T09:32:24.577Z,79200.00
2019-03-29T09:33:24.591Z,79552.00
2019-03-29T09:34:24.535Z,76928.00
2019-03-29T09:35:24.557Z,75136.00
2019-03-29T09:36:24.569Z,73664.00
2019-03-29T09:37:24.503Z,73216.00
2019-03-29T09:38:24.523Z,71200.00
2019-03-29T09:39:24.497Z,71232.00
2019-03-29T09:40:24.489Z,70656.00
2019-03-29T09:41:24.507Z,68992.00
2019-03-29T09:42:29.446Z,67168.00
2019-03-29T09:43:26.722Z,69376.00
2019-03-29T09:44:24.456Z,68288.00
2019-03-29T09:45:24.436Z,66464.00
2019-03-29T09:46:24.474Z,66816.00
2019-03-29T09:47:24.383Z,68032.00
2019-03-29T09:48:24.428Z,71200.00
2019-03-29T09:49:24.413Z,71168.00
2019-03-29T09:50:24.443Z,69312.00
2019-03-29T09:51:24.438Z,66368.00
2019-03-29T09:52:24.380Z,64064.00
2019-03-29T09:53:24.385Z,64448.00
2019-03-29T09:54:24.348Z,65664.00
2019-03-29T09:55:24.370Z,65056.00
2019-03-29T09:56:37.527Z,65440.00
2019-03-29T09:57:36.865Z,66912.00
2019-03-29T09:58:25.310Z,66240.00
2019-03-29T09:59:24.296Z,67648.00
2019-03-29T10:00:24.302Z,66304.00
2019-03-29T10:01:24.347Z,64896.00
2019-03-29T10:02:24.261Z,65248.00
2019-03-29T10:03:24.240Z,68064.00
2019-03-29T10:04:24.264Z,65696.00
2019-03-29T10:05:24.245Z,65312.00
2019-03-29T10:06:24.265Z,62496.00
2019-03-29T10:07:24.232Z,61568.00
2019-03-29T10:08:24.323Z,63648.00
2019-03-29T10:09:24.231Z,62656.00
2019-03-29T10:10:24.193Z,62016.00
2019-03-29T10:11:24.188Z,61248.00
2019-03-29T10:12:24.154Z,61312.00
2019-03-29T10:13:24.143Z,61504.00
2019-03-29T10:14:24.189Z,61760.00
2019-03-29T10:15:24.134Z,60736.00
2019-03-29T10:16:25.923Z,57824.00
2019-03-29T10:17:24.107Z,60960.00
2019-03-29T10:18:24.100Z,59712.00
2019-03-29T10:19:24.075Z,59104.00
2019-03-29T10:20:24.094Z,58080.00
2019-03-29T10:21:24.083Z,56512.00
2019-03-29T10:22:24.081Z,54912.00
2019-03-29T10:23:24.055Z,56000.00
2019-03-29T10:24:24.034Z,54688.00
2019-03-29T10:25:24.027Z,52704.00
2019-03-29T10:26:24.055Z,51840.00
2019-03-29T10:27:23.989Z,53280.00
2019-03-29T10:28:24.012Z,53728.00
2019-03-29T10:29:24.826Z,52288.00
2019-03-29T10:30:23.964Z,53952.00
2019-03-29T10:31:32.101Z,52768.00
2019-03-29T10:32:24.974Z,50304.00
2019-03-29T10:33:23.950Z,49312.00
2019-03-29T10:34:23.941Z,47072.00
2019-03-29T10:35:23.933Z,45632.00
2019-03-29T10:36:23.949Z,46400.00
2019-03-29T10:37:23.978Z,45120.00
2019-03-29T10:38:23.911Z,46176.00
2019-03-29T10:39:26.328Z,44192.00
2019-03-29T10:40:23.879Z,43360.00
2019-03-29T10:41:23.991Z,41472.00
2019-03-29T10:42:23.888Z,41664.00
2019-03-29T10:43:23.916Z,40064.00
2019-03-29T10:44:24.557Z,40864.00
2019-03-29T10:45:23.814Z,42176.00
2019-03-29T10:46:23.943Z,41472.00
2019-03-29T10:47:23.819Z,43264.00
2019-03-29T10:48:23.849Z,41792.00
2019-03-29T10:49:23.783Z,39424.00
2019-03-29T10:50:23.803Z,33440.00
2019-03-29T10:51:23.844Z,26784.00
2019-03-29T10:52:23.771Z,28256.00
2019-03-29T10:53:23.742Z,34976.00
2019-03-29T10:54:23.735Z,40064.00
2019-03-29T10:55:23.739Z,39264.00
2019-03-29T10:56:34.165Z,35328.00
2019-03-29T10:57:24.710Z,31904.00
2019-03-29T10:58:23.724Z,27936.00
2019-03-29T10:59:27.726Z,24352.00
2019-03-29T11:00:23.663Z,21024.00
2019-03-29T11:01:24.849Z,18240.00
2019-03-29T11:02:23.633Z,16832.00
2019-03-29T11:03:23.652Z,16192.00
2019-03-29T11:04:23.728Z,16128.00
2019-03-29T11:05:23.703Z,15872.00
2019-03-29T11:06:23.787Z,15520.00
2019-03-29T11:07:23.617Z,14944.00
2019-03-29T11:08:23.564Z,14432.00
2019-03-29T11:09:23.608Z,13940.00
2019-03-29T11:10:23.546Z,13876.00
2019-03-29T11:11:23.569Z,13724.00
2019-03-29T11:12:23.578Z,14164.00
2019-03-29T11:13:23.526Z,14292.00
2019-03-29T11:14:23.515Z,13780.00
2019-03-29T11:15:23.506Z,13572.00
2019-03-29T11:16:23.531Z,13476.00
2019-03-29T11:17:23.471Z,12976.00
2019-03-29T11:18:23.449Z,12868.00
2019-03-29T11:19:23.486Z,13132.00
2019-03-29T11:20:23.464Z,13160.00
2019-03-29T11:21:23.524Z,13136.00
2019-03-29T11:22:23.435Z,13152.00
2019-03-29T11:23:23.447Z,13088.00
2019-03-29T11:24:23.420Z,13096.00
2019-03-29T11:25:23.392Z,13164.00
2019-03-29T11:26:23.409Z,13428.00
2019-03-29T11:27:23.412Z,13564.00
2019-03-29T11:28:23.378Z,13556.00
2019-03-29T11:29:23.432Z,13856.00
2019-03-29T11:30:23.362Z,14464.00
2019-03-29T11:31:25.509Z,14720.00
2019-03-29T11:32:23.383Z,15040.00
2019-03-29T11:33:23.327Z,15744.00
2019-03-29T11:34:23.321Z,16704.00
2019-03-29T11:35:23.304Z,17952.00
2019-03-29T11:36:23.292Z,19776.00
2019-03-29T11:37:28.534Z,22592.00
2019-03-29T11:38:23.264Z,25504.00
2019-03-29T11:39:23.273Z,26432.00
2019-03-29T11:40:23.250Z,34112.00
2019-03-29T11:41:23.243Z,37856.00
2019-03-29T11:42:23.251Z,29888.00
2019-03-29T11:43:27.189Z,23040.00
2019-03-29T11:44:23.197Z,18432.00
2019-03-29T11:45:23.194Z,16224.00
2019-03-29T11:46:23.220Z,14656.00
2019-03-29T11:47:23.192Z,13476.00
2019-03-29T11:48:23.168Z,12620.00
2019-03-29T11:49:23.125Z,11796.00
2019-03-29T11:50:23.206Z,11220.00
2019-03-29T11:51:23.139Z,10992.00
2019-03-29T11:52:23.131Z,10836.00
2019-03-29T11:53:23.186Z,10668.00
2019-03-29T11:54:23.140Z,10524.00
2019-03-29T11:55:23.145Z,10432.00
2019-03-29T11:56:23.172Z,10368.00
2019-03-29T11:57:23.108Z,10320.00
2019-03-29T11:58:23.064Z,10272.00
2019-03-29T11:59:23.091Z,10240.00
2019-03-29T12:00:23.078Z,10212.00
2019-03-29T12:01:23.029Z,10148.00
2019-03-29T12:02:31.029Z,9676.00
2019-03-29T12:03:24.017Z,8900.00
2019-03-29T12:04:22.981Z,8716.00
2019-03-29T12:05:22.967Z,8676.00
2019-03-29T12:06:22.983Z,8692.00
2019-03-29T12:07:22.973Z,8692.00
2019-03-29T12:08:22.998Z,8700.00
2019-03-29T12:09:22.920Z,8668.00
2019-03-29T12:10:22.952Z,8584.00
2019-03-29T12:11:22.940Z,8580.00
2019-03-29T12:12:22.968Z,8604.00
2019-03-29T12:13:22.886Z,8588.00
2019-03-29T12:14:22.893Z,8576.00
2019-03-29T12:15:22.860Z,8604.00
2019-03-29T12:16:22.891Z,8628.00
2019-03-29T12:17:22.859Z,8616.00
2019-03-29T12:18:22.859Z,8580.00
2019-03-29T12:19:22.857Z,8592.00
2019-03-29T12:20:22.918Z,8644.00
2019-03-29T12:21:22.856Z,8576.00
2019-03-29T12:22:23.066Z,8312.00